X  Close Metar Aviation Weather Data     EHKD De Kooy Airport
Temperature
14°C Temperature
12°C Dewpoint
88% Humidity



Wind
13 KM/H
8 MPH
4 M/S
7 KTS



260°
W
Current Conditions

Overcast Overcast
Pressure 1004.06 (hPa) - 29.65 (inHg)
Visibility 6 (mile) - 9.7 (km)
Airport
Airport-code EHKD

Location: De Kooy Airport
Distance: 34 (km)

Metar:
EHKD 300625Z AUTO 26007KT 9999 OVC089 14/12 Q1004 BLU TEMPO FEW008 SCT012

Time: 30-05-2024 08:25 CEST